Pagina principale
METAR-TAF:

METAR-TAF

Aeroporti :

Wiener Neustadt, Austria

latitudine: 47-50-36N, longitudine: 016-15-29E, altezza: 272 m

Osservazione

Il bollettino è stato emesso 26 minuti fa, alle 10:00 UTC
Vento 10 kt da est
Temperature
Pressione

METAR: LOAN 091000Z 10010KT 20KM FEW040CU BKN080AC

Ora: 11:26 (10:26 UTC)

Previsione

Il bollettino è stato emesso 2 ore e 26 minuti fa, alle 08:00 UTC
Previsione valida dal 09 alle 09 UTC al 09 alle 18 UTC
Vento 10 kt da sud-est
Visibilità 10 km o più
Nubi sparse ad un'altezza di 4000 ft

TAF: LOAN 090800Z 0909/0918 13010KT 9999 SCT040

Osservazioni e previsioni meteorologiche di più di 4000 aeroporti (messaggi METAR e TAF).

Le stazioni disponibili sono rappresentate dai dischi gialli e rossi sulla carta.

Puntare il mouse per vedere il nome della stazione.

Clicca sopra per visualizzare le osservazioni e previsioni meteorologiche.

Per cambiare la mappa : fare clic sui pulsanti verdi con una croce nera per ingrandire, il pulsante verde con un trattino per diminuire, o sulla freccia verde per le mappe adiacenti.


METAR-TAF: